sensor_id;sensor_type;location;lat;lon;timestamp;temperature;humidity
29663;DHT22;16578;53.266;7.920;2023-07-20T00:00:01;19.70;73.70
29663;DHT22;16578;53.266;7.920;2023-07-20T00:02:27;19.70;73.70
29663;DHT22;16578;53.266;7.920;2023-07-20T00:04:53;19.80;73.90
29663;DHT22;16578;53.266;7.920;2023-07-20T00:07:18;19.80;73.90
29663;DHT22;16578;53.266;7.920;2023-07-20T00:09:44;19.70;73.70
29663;DHT22;16578;53.266;7.920;2023-07-20T00:12:09;19.80;73.70
29663;DHT22;16578;53.266;7.920;2023-07-20T00:14:35;19.80;73.70
29663;DHT22;16578;53.266;7.920;2023-07-20T00:17:02;19.70;73.70
29663;DHT22;16578;53.266;7.920;2023-07-20T00:19:27;19.70;73.70
29663;DHT22;16578;53.266;7.920;2023-07-20T00:21:54;19.70;73.80
29663;DHT22;16578;53.266;7.920;2023-07-20T00:24:20;19.70;73.90
29663;DHT22;16578;53.266;7.920;2023-07-20T00:26:46;19.70;73.90
29663;DHT22;16578;53.266;7.920;2023-07-20T00:29:11;19.60;73.90
29663;DHT22;16578;53.266;7.920;2023-07-20T00:31:37;19.60;73.90
29663;DHT22;16578;53.266;7.920;2023-07-20T00:34:03;19.60;74.10
29663;DHT22;16578;53.266;7.920;2023-07-20T00:36:29;19.60;74.10
29663;DHT22;16578;53.266;7.920;2023-07-20T00:38:55;19.60;74.20
29663;DHT22;16578;53.266;7.920;2023-07-20T00:41:20;19.60;74.30
29663;DHT22;16578;53.266;7.920;2023-07-20T00:43:46;19.60;74.50
29663;DHT22;16578;53.266;7.920;2023-07-20T00:46:11;19.60;74.60
29663;DHT22;16578;53.266;7.920;2023-07-20T00:48:37;19.60;74.60
29663;DHT22;16578;53.266;7.920;2023-07-20T00:51:03;19.60;74.70
29663;DHT22;16578;53.266;7.920;2023-07-20T00:53:29;19.60;74.70
29663;DHT22;16578;53.266;7.920;2023-07-20T00:55:55;19.60;74.80
29663;DHT22;16578;53.266;7.920;2023-07-20T00:58:21;19.60;74.80
29663;DHT22;16578;53.266;7.920;2023-07-20T01:00:46;19.60;74.80
29663;DHT22;16578;53.266;7.920;2023-07-20T01:03:12;19.60;74.80
29663;DHT22;16578;53.266;7.920;2023-07-20T01:05:56;19.60;74.80
29663;DHT22;16578;53.266;7.920;2023-07-20T01:08:57;19.70;75.10
29663;DHT22;16578;53.266;7.920;2023-07-20T01:14:38;19.70;75.00
29663;DHT22;16578;53.266;7.920;2023-07-20T01:17:04;19.60;74.80
29663;DHT22;16578;53.266;7.920;2023-07-20T01:19:30;19.60;74.80
29663;DHT22;16578;53.266;7.920;2023-07-20T01:32:35;19.70;75.10
29663;DHT22;16578;53.266;7.920;2023-07-20T01:35:02;19.60;74.80
29663;DHT22;16578;53.266;7.920;2023-07-20T01:37:30;19.60;74.80
29663;DHT22;16578;53.266;7.920;2023-07-20T01:39:57;19.60;74.80
29663;DHT22;16578;53.266;7.920;2023-07-20T01:42:24;19.60;74.80
29663;DHT22;16578;53.266;7.920;2023-07-20T01:44:53;19.60;74.90
29663;DHT22;16578;53.266;7.920;2023-07-20T01:47:19;19.60;74.70
29663;DHT22;16578;53.266;7.920;2023-07-20T01:49:44;19.50;74.80
29663;DHT22;16578;53.266;7.920;2023-07-20T01:52:10;19.60;74.60
29663;DHT22;16578;53.266;7.920;2023-07-20T01:54:36;19.50;74.70
29663;DHT22;16578;53.266;7.920;2023-07-20T01:57:01;19.50;74.80
29663;DHT22;16578;53.266;7.920;2023-07-20T01:59:27;19.50;74.90
29663;DHT22;16578;53.266;7.920;2023-07-20T02:01:52;19.50;74.90
29663;DHT22;16578;53.266;7.920;2023-07-20T02:04:18;19.50;74.90
29663;DHT22;16578;53.266;7.920;2023-07-20T02:06:43;19.40;74.90
29663;DHT22;16578;53.266;7.920;2023-07-20T02:09:09;19.40;74.90
29663;DHT22;16578;53.266;7.920;2023-07-20T02:11:34;19.40;75.00
29663;DHT22;16578;53.266;7.920;2023-07-20T02:14:00;19.40;75.10
29663;DHT22;16578;53.266;7.920;2023-07-20T02:16:26;19.40;75.20
29663;DHT22;16578;53.266;7.920;2023-07-20T02:18:52;19.40;75.10
29663;DHT22;16578;53.266;7.920;2023-07-20T02:21:18;19.40;75.20
29663;DHT22;16578;53.266;7.920;2023-07-20T02:23:43;19.40;75.20
29663;DHT22;16578;53.266;7.920;2023-07-20T02:26:09;19.40;75.20
29663;DHT22;16578;53.266;7.920;2023-07-20T02:28:35;19.30;75.20
29663;DHT22;16578;53.266;7.920;2023-07-20T02:31:00;19.30;75.30
29663;DHT22;16578;53.266;7.920;2023-07-20T02:33:26;19.30;75.30
29663;DHT22;16578;53.266;7.920;2023-07-20T02:35:52;19.30;75.30
29663;DHT22;16578;53.266;7.920;2023-07-20T02:38:17;19.40;75.30
29663;DHT22;16578;53.266;7.920;2023-07-20T02:40:43;19.40;75.40
29663;DHT22;16578;53.266;7.920;2023-07-20T02:43:08;19.30;75.30
29663;DHT22;16578;53.266;7.920;2023-07-20T02:45:35;19.30;75.30
29663;DHT22;16578;53.266;7.920;2023-07-20T02:48:01;19.30;75.30
29663;DHT22;16578;53.266;7.920;2023-07-20T02:50:26;19.30;75.30
29663;DHT22;16578;53.266;7.920;2023-07-20T02:52:52;19.40;75.20
29663;DHT22;16578;53.266;7.920;2023-07-20T02:55:17;19.30;75.20
29663;DHT22;16578;53.266;7.920;2023-07-20T02:57:43;19.30;75.10
29663;DHT22;16578;53.266;7.920;2023-07-20T03:00:09;19.30;75.20
29663;DHT22;16578;53.266;7.920;2023-07-20T03:02:34;19.20;75.10
29663;DHT22;16578;53.266;7.920;2023-07-20T03:05:00;19.20;75.20
29663;DHT22;16578;53.266;7.920;2023-07-20T03:07:28;19.20;75.10
29663;DHT22;16578;53.266;7.920;2023-07-20T03:09:54;19.20;75.00
29663;DHT22;16578;53.266;7.920;2023-07-20T03:12:20;19.20;74.90
29663;DHT22;16578;53.266;7.920;2023-07-20T03:14:46;19.20;74.80
29663;DHT22;16578;53.266;7.920;2023-07-20T03:17:11;19.20;74.80
29663;DHT22;16578;53.266;7.920;2023-07-20T03:19:37;19.10;74.70
29663;DHT22;16578;53.266;7.920;2023-07-20T03:22:03;19.10;74.70
29663;DHT22;16578;53.266;7.920;2023-07-20T03:24:28;19.10;74.70
29663;DHT22;16578;53.266;7.920;2023-07-20T03:26:54;19.00;74.60
29663;DHT22;16578;53.266;7.920;2023-07-20T03:29:19;19.00;74.50
29663;DHT22;16578;53.266;7.920;2023-07-20T03:31:45;19.00;74.40
29663;DHT22;16578;53.266;7.920;2023-07-20T03:34:10;19.00;74.40
29663;DHT22;16578;53.266;7.920;2023-07-20T03:36:36;19.00;74.40
29663;DHT22;16578;53.266;7.920;2023-07-20T03:39:02;18.90;74.30
29663;DHT22;16578;53.266;7.920;2023-07-20T03:41:28;18.90;74.30
29663;DHT22;16578;53.266;7.920;2023-07-20T03:43:54;18.90;74.20
29663;DHT22;16578;53.266;7.920;2023-07-20T03:46:20;18.80;74.10
29663;DHT22;16578;53.266;7.920;2023-07-20T03:48:45;18.80;74.10
29663;DHT22;16578;53.266;7.920;2023-07-20T03:51:11;18.80;74.10
29663;DHT22;16578;53.266;7.920;2023-07-20T03:53:36;18.80;74.10
29663;DHT22;16578;53.266;7.920;2023-07-20T03:56:02;18.80;74.20
29663;DHT22;16578;53.266;7.920;2023-07-20T03:58:27;18.70;74.20
29663;DHT22;16578;53.266;7.920;2023-07-20T04:00:53;18.70;74.20
29663;DHT22;16578;53.266;7.920;2023-07-20T04:03:19;18.60;74.30
29663;DHT22;16578;53.266;7.920;2023-07-20T04:05:45;18.70;74.40
29663;DHT22;16578;53.266;7.920;2023-07-20T04:08:11;18.60;74.50
29663;DHT22;16578;53.266;7.920;2023-07-20T04:10:38;18.60;74.50
29663;DHT22;16578;53.266;7.920;2023-07-20T04:13:04;18.60;74.70
29663;DHT22;16578;53.266;7.920;2023-07-20T04:15:30;18.60;74.70
29663;DHT22;16578;53.266;7.920;2023-07-20T04:17:56;18.50;74.70
29663;DHT22;16578;53.266;7.920;2023-07-20T04:20:23;18.50;74.70
29663;DHT22;16578;53.266;7.920;2023-07-20T04:22:48;18.50;74.70
29663;DHT22;16578;53.266;7.920;2023-07-20T04:25:14;18.50;74.70
29663;DHT22;16578;53.266;7.920;2023-07-20T04:27:40;18.50;74.80
29663;DHT22;16578;53.266;7.920;2023-07-20T04:30:07;18.50;75.00
29663;DHT22;16578;53.266;7.920;2023-07-20T04:32:33;18.50;75.00
29663;DHT22;16578;53.266;7.920;2023-07-20T04:34:59;18.50;75.10
29663;DHT22;16578;53.266;7.920;2023-07-20T04:37:25;18.50;75.20
29663;DHT22;16578;53.266;7.920;2023-07-20T04:39:50;18.50;75.20
29663;DHT22;16578;53.266;7.920;2023-07-20T04:42:16;18.50;75.40
29663;DHT22;16578;53.266;7.920;2023-07-20T04:44:41;18.50;75.50
29663;DHT22;16578;53.266;7.920;2023-07-20T04:47:07;18.50;75.60
29663;DHT22;16578;53.266;7.920;2023-07-20T04:49:34;18.50;75.70
29663;DHT22;16578;53.266;7.920;2023-07-20T04:51:59;18.50;75.80
29663;DHT22;16578;53.266;7.920;2023-07-20T04:54:25;18.50;75.80
29663;DHT22;16578;53.266;7.920;2023-07-20T04:56:52;18.50;76.00
29663;DHT22;16578;53.266;7.920;2023-07-20T04:59:18;18.50;75.90
29663;DHT22;16578;53.266;7.920;2023-07-20T05:01:44;18.50;76.00
29663;DHT22;16578;53.266;7.920;2023-07-20T05:04:09;18.50;76.00
29663;DHT22;16578;53.266;7.920;2023-07-20T05:06:35;18.60;76.10
29663;DHT22;16578;53.266;7.920;2023-07-20T05:09:00;18.50;76.10
29663;DHT22;16578;53.266;7.920;2023-07-20T05:11:26;18.60;76.20
29663;DHT22;16578;53.266;7.920;2023-07-20T05:13:52;18.60;76.30
29663;DHT22;16578;53.266;7.920;2023-07-20T05:16:17;18.60;76.20
29663;DHT22;16578;53.266;7.920;2023-07-20T05:18:43;18.60;76.10
29663;DHT22;16578;53.266;7.920;2023-07-20T05:21:08;18.60;76.10
29663;DHT22;16578;53.266;7.920;2023-07-20T05:23:34;18.60;76.10
29663;DHT22;16578;53.266;7.920;2023-07-20T05:25:59;18.60;76.20
29663;DHT22;16578;53.266;7.920;2023-07-20T05:28:28;18.60;76.30
29663;DHT22;16578;53.266;7.920;2023-07-20T05:30:53;18.70;76.30
29663;DHT22;16578;53.266;7.920;2023-07-20T05:33:19;18.60;76.50
29663;DHT22;16578;53.266;7.920;2023-07-20T05:35:46;18.70;76.30
29663;DHT22;16578;53.266;7.920;2023-07-20T05:38:11;18.70;76.40
29663;DHT22;16578;53.266;7.920;2023-07-20T05:40:41;18.70;76.60
29663;DHT22;16578;53.266;7.920;2023-07-20T05:43:10;18.80;76.50
29663;DHT22;16578;53.266;7.920;2023-07-20T05:45:36;18.80;76.60
29663;DHT22;16578;53.266;7.920;2023-07-20T05:48:01;18.80;76.60
29663;DHT22;16578;53.266;7.920;2023-07-20T05:50:27;18.90;76.80
29663;DHT22;16578;53.266;7.920;2023-07-20T05:52:53;18.90;76.90
29663;DHT22;16578;53.266;7.920;2023-07-20T05:55:19;19.00;76.90
29663;DHT22;16578;53.266;7.920;2023-07-20T05:57:45;19.00;76.80
29663;DHT22;16578;53.266;7.920;2023-07-20T06:00:11;19.00;76.70
29663;DHT22;16578;53.266;7.920;2023-07-20T06:02:38;19.10;76.70
29663;DHT22;16578;53.266;7.920;2023-07-20T06:05:04;19.10;76.70
29663;DHT22;16578;53.266;7.920;2023-07-20T06:07:30;19.10;76.50
29663;DHT22;16578;53.266;7.920;2023-07-20T06:09:56;19.20;76.40
29663;DHT22;16578;53.266;7.920;2023-07-20T06:12:23;19.20;76.20
29663;DHT22;16578;53.266;7.920;2023-07-20T06:14:49;19.20;75.90
29663;DHT22;16578;53.266;7.920;2023-07-20T06:17:14;19.30;75.90
29663;DHT22;16578;53.266;7.920;2023-07-20T06:19:40;19.30;76.00
29663;DHT22;16578;53.266;7.920;2023-07-20T06:22:05;19.30;76.00
29663;DHT22;16578;53.266;7.920;2023-07-20T06:24:31;19.30;75.90
29663;DHT22;16578;53.266;7.920;2023-07-20T06:26:56;19.30;75.80
29663;DHT22;16578;53.266;7.920;2023-07-20T06:29:22;19.40;75.90
29663;DHT22;16578;53.266;7.920;2023-07-20T06:31:48;19.40;75.80
29663;DHT22;16578;53.266;7.920;2023-07-20T06:34:13;19.40;75.80
29663;DHT22;16578;53.266;7.920;2023-07-20T06:36:39;19.50;75.90
29663;DHT22;16578;53.266;7.920;2023-07-20T06:39:04;19.50;76.00
29663;DHT22;16578;53.266;7.920;2023-07-20T06:41:30;19.50;75.90
29663;DHT22;16578;53.266;7.920;2023-07-20T06:43:55;19.60;75.70
29663;DHT22;16578;53.266;7.920;2023-07-20T06:46:25;19.60;75.60
29663;DHT22;16578;53.266;7.920;2023-07-20T06:48:51;19.70;75.40
29663;DHT22;16578;53.266;7.920;2023-07-20T06:51:16;19.70;75.30
29663;DHT22;16578;53.266;7.920;2023-07-20T06:53:43;19.70;75.00
29663;DHT22;16578;53.266;7.920;2023-07-20T06:56:09;19.80;74.60
29663;DHT22;16578;53.266;7.920;2023-07-20T06:58:34;19.80;74.40
29663;DHT22;16578;53.266;7.920;2023-07-20T07:01:05;19.80;74.20
29663;DHT22;16578;53.266;7.920;2023-07-20T07:03:30;19.80;73.90
29663;DHT22;16578;53.266;7.920;2023-07-20T07:05:56;19.80;73.80
29663;DHT22;16578;53.266;7.920;2023-07-20T07:08:21;19.80;73.60
29663;DHT22;16578;53.266;7.920;2023-07-20T07:10:47;19.80;73.20
29663;DHT22;16578;53.266;7.920;2023-07-20T07:13:13;19.80;72.60
29663;DHT22;16578;53.266;7.920;2023-07-20T07:15:38;19.80;72.50
29663;DHT22;16578;53.266;7.920;2023-07-20T07:18:04;19.80;72.70
29663;DHT22;16578;53.266;7.920;2023-07-20T07:20:29;19.80;72.90
29663;DHT22;16578;53.266;7.920;2023-07-20T07:22:55;19.80;73.90
29663;DHT22;16578;53.266;7.920;2023-07-20T07:25:22;19.90;72.70
29663;DHT22;16578;53.266;7.920;2023-07-20T07:27:48;19.90;72.40
29663;DHT22;16578;53.266;7.920;2023-07-20T07:30:13;20.00;72.00
29663;DHT22;16578;53.266;7.920;2023-07-20T07:32:39;20.00;71.60
29663;DHT22;16578;53.266;7.920;2023-07-20T07:35:05;20.00;71.50
29663;DHT22;16578;53.266;7.920;2023-07-20T07:37:30;20.00;71.80
29663;DHT22;16578;53.266;7.920;2023-07-20T07:39:57;20.00;71.70
29663;DHT22;16578;53.266;7.920;2023-07-20T07:42:22;20.10;71.00
29663;DHT22;16578;53.266;7.920;2023-07-20T07:44:48;20.10;70.80
29663;DHT22;16578;53.266;7.920;2023-07-20T07:47:14;20.10;70.60
29663;DHT22;16578;53.266;7.920;2023-07-20T07:49:39;20.10;70.20
29663;DHT22;16578;53.266;7.920;2023-07-20T07:52:05;20.10;69.90
29663;DHT22;16578;53.266;7.920;2023-07-20T07:54:31;20.10;69.90
29663;DHT22;16578;53.266;7.920;2023-07-20T07:56:57;20.20;69.90
29663;DHT22;16578;53.266;7.920;2023-07-20T07:59:22;20.20;69.80
29663;DHT22;16578;53.266;7.920;2023-07-20T08:01:48;20.20;69.60
29663;DHT22;16578;53.266;7.920;2023-07-20T08:04:13;20.20;69.90
29663;DHT22;16578;53.266;7.920;2023-07-20T08:06:39;20.30;70.20
29663;DHT22;16578;53.266;7.920;2023-07-20T08:09:05;20.40;70.10
29663;DHT22;16578;53.266;7.920;2023-07-20T08:11:30;20.40;69.90
29663;DHT22;16578;53.266;7.920;2023-07-20T08:14:02;20.50;69.50
29663;DHT22;16578;53.266;7.920;2023-07-20T08:16:27;20.50;69.10
29663;DHT22;16578;53.266;7.920;2023-07-20T08:18:53;20.60;68.80
29663;DHT22;16578;53.266;7.920;2023-07-20T08:21:18;20.60;68.40
29663;DHT22;16578;53.266;7.920;2023-07-20T08:23:44;20.60;68.20
29663;DHT22;16578;53.266;7.920;2023-07-20T08:26:10;20.60;68.00
29663;DHT22;16578;53.266;7.920;2023-07-20T08:28:35;20.60;67.30
29663;DHT22;16578;53.266;7.920;2023-07-20T08:31:01;20.60;67.10
29663;DHT22;16578;53.266;7.920;2023-07-20T08:33:28;20.60;66.80
29663;DHT22;16578;53.266;7.920;2023-07-20T08:35:55;20.60;66.60
29663;DHT22;16578;53.266;7.920;2023-07-20T08:38:22;20.50;66.80
29663;DHT22;16578;53.266;7.920;2023-07-20T08:40:47;20.50;66.90
29663;DHT22;16578;53.266;7.920;2023-07-20T08:43:14;20.50;66.50
29663;DHT22;16578;53.266;7.920;2023-07-20T08:45:42;20.50;66.40
29663;DHT22;16578;53.266;7.920;2023-07-20T08:48:08;20.50;66.40
29663;DHT22;16578;53.266;7.920;2023-07-20T08:50:35;20.50;66.40
29663;DHT22;16578;53.266;7.920;2023-07-20T08:53:01;20.50;66.20
29663;DHT22;16578;53.266;7.920;2023-07-20T08:55:28;20.60;66.30
29663;DHT22;16578;53.266;7.920;2023-07-20T08:57:55;20.60;66.30
29663;DHT22;16578;53.266;7.920;2023-07-20T09:00:22;20.70;65.60
29663;DHT22;16578;53.266;7.920;2023-07-20T09:02:52;20.70;65.00
29663;DHT22;16578;53.266;7.920;2023-07-20T09:05:19;20.80;65.20
29663;DHT22;16578;53.266;7.920;2023-07-20T09:07:44;20.80;65.50
29663;DHT22;16578;53.266;7.920;2023-07-20T09:10:10;20.80;65.60
29663;DHT22;16578;53.266;7.920;2023-07-20T09:12:38;20.80;65.50
29663;DHT22;16578;53.266;7.920;2023-07-20T09:15:05;20.90;65.30
29663;DHT22;16578;53.266;7.920;2023-07-20T09:17:31;20.90;64.90
29663;DHT22;16578;53.266;7.920;2023-07-20T09:19:56;20.90;64.60
29663;DHT22;16578;53.266;7.920;2023-07-20T09:22:28;21.00;64.50
29663;DHT22;16578;53.266;7.920;2023-07-20T09:24:54;21.10;64.30
29663;DHT22;16578;53.266;7.920;2023-07-20T09:27:20;21.10;64.60
29663;DHT22;16578;53.266;7.920;2023-07-20T09:29:52;21.10;62.90
29663;DHT22;16578;53.266;7.920;2023-07-20T09:32:21;21.10;62.20
29663;DHT22;16578;53.266;7.920;2023-07-20T09:34:49;21.10;62.10
29663;DHT22;16578;53.266;7.920;2023-07-20T09:37:20;21.10;62.50
29663;DHT22;16578;53.266;7.920;2023-07-20T09:39:46;21.20;64.10
29663;DHT22;16578;53.266;7.920;2023-07-20T09:42:13;21.20;62.60
29663;DHT22;16578;53.266;7.920;2023-07-20T09:44:39;21.20;61.90
29663;DHT22;16578;53.266;7.920;2023-07-20T09:47:05;21.20;61.50
29663;DHT22;16578;53.266;7.920;2023-07-20T09:49:31;21.20;61.30
29663;DHT22;16578;53.266;7.920;2023-07-20T09:52:01;21.30;61.60
29663;DHT22;16578;53.266;7.920;2023-07-20T09:54:28;21.30;62.30
29663;DHT22;16578;53.266;7.920;2023-07-20T09:56:54;21.40;61.50
29663;DHT22;16578;53.266;7.920;2023-07-20T09:59:21;21.40;61.40
29663;DHT22;16578;53.266;7.920;2023-07-20T10:01:47;21.40;61.40
29663;DHT22;16578;53.266;7.920;2023-07-20T10:04:16;21.50;60.90
29663;DHT22;16578;53.266;7.920;2023-07-20T10:06:45;21.50;60.80
29663;DHT22;16578;53.266;7.920;2023-07-20T10:09:15;21.60;60.90
29663;DHT22;16578;53.266;7.920;2023-07-20T10:11:49;21.60;60.80
29663;DHT22;16578;53.266;7.920;2023-07-20T10:14:19;21.60;60.50
29663;DHT22;16578;53.266;7.920;2023-07-20T10:16:50;21.60;60.00
29663;DHT22;16578;53.266;7.920;2023-07-20T10:19:42;21.70;60.10
29663;DHT22;16578;53.266;7.920;2023-07-20T10:22:16;21.70;59.90
29663;DHT22;16578;53.266;7.920;2023-07-20T10:24:45;21.70;59.80
29663;DHT22;16578;53.266;7.920;2023-07-20T10:27:12;21.70;59.80
29663;DHT22;16578;53.266;7.920;2023-07-20T10:29:39;21.80;59.60
29663;DHT22;16578;53.266;7.920;2023-07-20T10:32:05;21.80;59.20
29663;DHT22;16578;53.266;7.920;2023-07-20T10:34:32;21.80;59.30
29663;DHT22;16578;53.266;7.920;2023-07-20T10:36:59;21.80;59.60
29663;DHT22;16578;53.266;7.920;2023-07-20T10:39:29;21.90;59.80
29663;DHT22;16578;53.266;7.920;2023-07-20T10:42:09;22.00;59.50
29663;DHT22;16578;53.266;7.920;2023-07-20T10:44:39;22.00;58.80
29663;DHT22;16578;53.266;7.920;2023-07-20T10:47:12;22.00;59.10
29663;DHT22;16578;53.266;7.920;2023-07-20T10:49:57;22.10;58.30
29663;DHT22;16578;53.266;7.920;2023-07-20T10:52:23;22.10;58.60
29663;DHT22;16578;53.266;7.920;2023-07-20T10:54:48;22.10;59.30
29663;DHT22;16578;53.266;7.920;2023-07-20T10:57:28;22.10;58.70
29663;DHT22;16578;53.266;7.920;2023-07-20T11:00:10;22.10;58.60
29663;DHT22;16578;53.266;7.920;2023-07-20T11:02:47;22.10;58.30
29663;DHT22;16578;53.266;7.920;2023-07-20T11:05:36;22.10;59.10
29663;DHT22;16578;53.266;7.920;2023-07-20T11:08:16;22.10;59.60
29663;DHT22;16578;53.266;7.920;2023-07-20T11:11:20;22.10;60.00
29663;DHT22;16578;53.266;7.920;2023-07-20T11:14:01;22.20;59.90
29663;DHT22;16578;53.266;7.920;2023-07-20T11:16:40;22.20;61.70
29663;DHT22;16578;53.266;7.920;2023-07-20T11:19:17;22.10;62.00
29663;DHT22;16578;53.266;7.920;2023-07-20T11:21:44;22.00;62.40
29663;DHT22;16578;53.266;7.920;2023-07-20T11:24:10;21.80;62.80
29663;DHT22;16578;53.266;7.920;2023-07-20T11:26:55;21.70;63.30
29663;DHT22;16578;53.266;7.920;2023-07-20T11:29:22;21.70;64.50
29663;DHT22;16578;53.266;7.920;2023-07-20T11:31:49;21.50;64.60
29663;DHT22;16578;53.266;7.920;2023-07-20T11:34:19;21.50;65.30
29663;DHT22;16578;53.266;7.920;2023-07-20T11:36:50;21.40;65.70
29663;DHT22;16578;53.266;7.920;2023-07-20T11:39:17;21.40;66.20
29663;DHT22;16578;53.266;7.920;2023-07-20T11:41:47;21.40;66.30
29663;DHT22;16578;53.266;7.920;2023-07-20T11:44:19;21.30;66.20
29663;DHT22;16578;53.266;7.920;2023-07-20T11:46:45;21.30;65.50
29663;DHT22;16578;53.266;7.920;2023-07-20T11:49:11;21.30;64.80
29663;DHT22;16578;53.266;7.920;2023-07-20T11:51:39;21.20;64.30
29663;DHT22;16578;53.266;7.920;2023-07-20T11:54:06;21.20;64.30
29663;DHT22;16578;53.266;7.920;2023-07-20T11:56:32;21.10;64.00
29663;DHT22;16578;53.266;7.920;2023-07-20T11:58:58;21.10;64.60
29663;DHT22;16578;53.266;7.920;2023-07-20T12:01:26;21.10;64.80
29663;DHT22;16578;53.266;7.920;2023-07-20T12:03:57;21.10;64.90
29663;DHT22;16578;53.266;7.920;2023-07-20T12:06:24;21.20;65.30
29663;DHT22;16578;53.266;7.920;2023-07-20T12:08:50;21.20;65.70
29663;DHT22;16578;53.266;7.920;2023-07-20T12:13:59;21.30;62.70
29663;DHT22;16578;53.266;7.920;2023-07-20T12:16:27;21.30;62.20
29663;DHT22;16578;53.266;7.920;2023-07-20T12:19:12;21.40;61.60
29663;DHT22;16578;53.266;7.920;2023-07-20T12:21:40;21.40;61.70
29663;DHT22;16578;53.266;7.920;2023-07-20T12:24:06;21.40;61.50
29663;DHT22;16578;53.266;7.920;2023-07-20T12:26:33;21.30;61.40
29663;DHT22;16578;53.266;7.920;2023-07-20T12:28:59;21.30;61.40
29663;DHT22;16578;53.266;7.920;2023-07-20T12:31:26;21.30;61.20
29663;DHT22;16578;53.266;7.920;2023-07-20T12:33:53;21.30;61.00
29663;DHT22;16578;53.266;7.920;2023-07-20T12:36:20;21.40;60.40
29663;DHT22;16578;53.266;7.920;2023-07-20T12:38:46;21.40;60.60
29663;DHT22;16578;53.266;7.920;2023-07-20T12:41:12;21.40;61.00
29663;DHT22;16578;53.266;7.920;2023-07-20T12:43:38;21.50;61.10
29663;DHT22;16578;53.266;7.920;2023-07-20T12:46:05;21.50;61.10
29663;DHT22;16578;53.266;7.920;2023-07-20T12:48:31;21.60;61.20
29663;DHT22;16578;53.266;7.920;2023-07-20T12:50:57;21.70;60.70
29663;DHT22;16578;53.266;7.920;2023-07-20T12:53:22;21.70;59.90
29663;DHT22;16578;53.266;7.920;2023-07-20T12:55:48;21.70;59.60
29663;DHT22;16578;53.266;7.920;2023-07-20T12:58:13;21.70;59.40
29663;DHT22;16578;53.266;7.920;2023-07-20T13:00:39;21.80;59.50
29663;DHT22;16578;53.266;7.920;2023-07-20T13:03:06;21.80;59.70
29663;DHT22;16578;53.266;7.920;2023-07-20T13:05:32;21.90;60.00
29663;DHT22;16578;53.266;7.920;2023-07-20T13:07:58;22.00;60.30
29663;DHT22;16578;53.266;7.920;2023-07-20T13:10:24;22.00;59.80
29663;DHT22;16578;53.266;7.920;2023-07-20T13:12:50;22.10;59.80
29663;DHT22;16578;53.266;7.920;2023-07-20T13:15:17;22.10;59.90
29663;DHT22;16578;53.266;7.920;2023-07-20T13:17:42;22.20;59.90
29663;DHT22;16578;53.266;7.920;2023-07-20T13:20:09;22.20;59.50
29663;DHT22;16578;53.266;7.920;2023-07-20T13:22:37;22.20;59.30
29663;DHT22;16578;53.266;7.920;2023-07-20T13:25:02;22.20;59.20
29663;DHT22;16578;53.266;7.920;2023-07-20T13:27:28;22.20;59.00
29663;DHT22;16578;53.266;7.920;2023-07-20T13:29:55;22.30;59.20
29663;DHT22;16578;53.266;7.920;2023-07-20T13:32:21;22.40;58.90
29663;DHT22;16578;53.266;7.920;2023-07-20T13:34:47;22.30;59.40
29663;DHT22;16578;53.266;7.920;2023-07-20T13:37:13;22.40;58.70
29663;DHT22;16578;53.266;7.920;2023-07-20T13:39:39;22.50;58.50
29663;DHT22;16578;53.266;7.920;2023-07-20T13:42:05;22.50;57.90
29663;DHT22;16578;53.266;7.920;2023-07-20T13:44:32;22.50;57.90
29663;DHT22;16578;53.266;7.920;2023-07-20T13:46:57;22.50;57.80
29663;DHT22;16578;53.266;7.920;2023-07-20T13:49:23;22.50;57.70
29663;DHT22;16578;53.266;7.920;2023-07-20T13:51:49;22.60;57.80
29663;DHT22;16578;53.266;7.920;2023-07-20T13:54:15;22.60;57.50
29663;DHT22;16578;53.266;7.920;2023-07-20T13:56:40;22.60;57.40
29663;DHT22;16578;53.266;7.920;2023-07-20T13:59:06;22.60;57.20
29663;DHT22;16578;53.266;7.920;2023-07-20T14:01:31;22.70;56.80
29663;DHT22;16578;53.266;7.920;2023-07-20T14:03:59;22.70;56.80
29663;DHT22;16578;53.266;7.920;2023-07-20T14:06:25;22.80;56.90
29663;DHT22;16578;53.266;7.920;2023-07-20T14:08:51;22.80;56.50
29663;DHT22;16578;53.266;7.920;2023-07-20T14:11:18;22.80;56.20
29663;DHT22;16578;53.266;7.920;2023-07-20T14:13:44;22.80;55.80
29663;DHT22;16578;53.266;7.920;2023-07-20T14:16:09;22.90;55.80
29663;DHT22;16578;53.266;7.920;2023-07-20T14:18:35;22.90;56.00
29663;DHT22;16578;53.266;7.920;2023-07-20T14:21:00;22.90;55.40
29663;DHT22;16578;53.266;7.920;2023-07-20T14:23:28;22.90;55.50
29663;DHT22;16578;53.266;7.920;2023-07-20T14:25:54;23.00;55.70
29663;DHT22;16578;53.266;7.920;2023-07-20T14:28:20;23.00;56.10
29663;DHT22;16578;53.266;7.920;2023-07-20T14:30:45;23.00;55.70
29663;DHT22;16578;53.266;7.920;2023-07-20T14:33:11;23.10;55.40
29663;DHT22;16578;53.266;7.920;2023-07-20T14:35:37;23.10;55.10
29663;DHT22;16578;53.266;7.920;2023-07-20T14:38:02;23.10;55.20
29663;DHT22;16578;53.266;7.920;2023-07-20T14:40:28;23.10;54.80
29663;DHT22;16578;53.266;7.920;2023-07-20T14:42:58;23.10;54.70
29663;DHT22;16578;53.266;7.920;2023-07-20T14:45:27;23.10;54.80
29663;DHT22;16578;53.266;7.920;2023-07-20T14:47:52;23.00;54.90
29663;DHT22;16578;53.266;7.920;2023-07-20T14:50:22;23.00;54.90
29663;DHT22;16578;53.266;7.920;2023-07-20T14:52:48;23.00;54.50
29663;DHT22;16578;53.266;7.920;2023-07-20T14:55:14;23.00;54.50
29663;DHT22;16578;53.266;7.920;2023-07-20T14:57:39;22.90;54.60
29663;DHT22;16578;53.266;7.920;2023-07-20T15:00:05;22.90;54.80
29663;DHT22;16578;53.266;7.920;2023-07-20T15:02:36;22.90;54.70
29663;DHT22;16578;53.266;7.920;2023-07-20T15:05:05;22.90;54.50
29663;DHT22;16578;53.266;7.920;2023-07-20T15:07:31;22.90;54.50
29663;DHT22;16578;53.266;7.920;2023-07-20T15:09:57;22.90;54.40
29663;DHT22;16578;53.266;7.920;2023-07-20T15:12:22;22.90;54.30
29663;DHT22;16578;53.266;7.920;2023-07-20T15:15:05;22.90;53.90
29663;DHT22;16578;53.266;7.920;2023-07-20T15:17:32;22.90;53.40
29663;DHT22;16578;53.266;7.920;2023-07-20T15:19:57;22.80;53.90
29663;DHT22;16578;53.266;7.920;2023-07-20T15:22:23;22.80;54.10
29663;DHT22;16578;53.266;7.920;2023-07-20T15:24:49;22.80;54.40
29663;DHT22;16578;53.266;7.920;2023-07-20T15:27:14;22.80;54.40
29663;DHT22;16578;53.266;7.920;2023-07-20T15:29:40;22.80;54.20
29663;DHT22;16578;53.266;7.920;2023-07-20T15:32:06;22.80;54.20
29663;DHT22;16578;53.266;7.920;2023-07-20T15:34:33;22.80;54.30
29663;DHT22;16578;53.266;7.920;2023-07-20T15:36:58;22.80;54.00
29663;DHT22;16578;53.266;7.920;2023-07-20T15:39:24;22.80;54.20
29663;DHT22;16578;53.266;7.920;2023-07-20T15:41:50;22.80;54.00
29663;DHT22;16578;53.266;7.920;2023-07-20T15:44:15;22.80;53.90